sensor_id;sensor_type;location;lat;lon;timestamp;P1;durP1;ratioP1;P2;durP2;ratioP2
2966;SDS011;1493;51.496;7.210;2023-08-17T00:02:15;3.60;;;3.17;;
2966;SDS011;1493;51.496;7.210;2023-08-17T00:04:43;4.10;;;3.73;;
2966;SDS011;1493;51.496;7.210;2023-08-17T00:07:09;3.30;;;2.97;;
2966;SDS011;1493;51.496;7.210;2023-08-17T00:09:36;4.73;;;3.70;;
2966;SDS011;1493;51.496;7.210;2023-08-17T00:12:03;7.00;;;4.97;;
2966;SDS011;1493;51.496;7.210;2023-08-17T00:14:30;6.00;;;4.03;;
2966;SDS011;1493;51.496;7.210;2023-08-17T00:16:57;4.50;;;4.10;;
2966;SDS011;1493;51.496;7.210;2023-08-17T00:19:24;5.10;;;3.90;;
2966;SDS011;1493;51.496;7.210;2023-08-17T00:21:53;6.03;;;4.00;;
2966;SDS011;1493;51.496;7.210;2023-08-17T00:24:21;4.57;;;3.90;;
2966;SDS011;1493;51.496;7.210;2023-08-17T00:26:47;5.40;;;3.50;;
2966;SDS011;1493;51.496;7.210;2023-08-17T00:29:14;5.97;;;3.90;;
2966;SDS011;1493;51.496;7.210;2023-08-17T00:31:42;4.73;;;3.00;;
2966;SDS011;1493;51.496;7.210;2023-08-17T00:34:09;3.53;;;3.23;;
2966;SDS011;1493;51.496;7.210;2023-08-17T00:36:35;4.23;;;3.80;;
2966;SDS011;1493;51.496;7.210;2023-08-17T00:39:04;4.03;;;3.70;;
2966;SDS011;1493;51.496;7.210;2023-08-17T00:41:31;5.00;;;3.13;;
2966;SDS011;1493;51.496;7.210;2023-08-17T00:43:59;6.30;;;3.50;;
2966;SDS011;1493;51.496;7.210;2023-08-17T00:46:26;3.97;;;3.60;;
2966;SDS011;1493;51.496;7.210;2023-08-17T00:48:53;4.33;;;3.10;;
2966;SDS011;1493;51.496;7.210;2023-08-17T00:51:21;5.43;;;3.70;;
2966;SDS011;1493;51.496;7.210;2023-08-17T00:53:49;6.40;;;4.10;;
2966;SDS011;1493;51.496;7.210;2023-08-17T00:56:18;6.83;;;3.30;;
2966;SDS011;1493;51.496;7.210;2023-08-17T00:58:45;5.70;;;3.93;;
2966;SDS011;1493;51.496;7.210;2023-08-17T01:01:12;5.50;;;3.20;;
2966;SDS011;1493;51.496;7.210;2023-08-17T01:03:39;3.80;;;3.50;;
2966;SDS011;1493;51.496;7.210;2023-08-17T01:06:06;5.63;;;3.70;;
2966;SDS011;1493;51.496;7.210;2023-08-17T01:08:33;3.93;;;3.63;;
2966;SDS011;1493;51.496;7.210;2023-08-17T01:11:02;4.83;;;3.80;;
2966;SDS011;1493;51.496;7.210;2023-08-17T01:13:38;5.70;;;4.07;;
2966;SDS011;1493;51.496;7.210;2023-08-17T01:16:14;5.60;;;3.90;;
2966;SDS011;1493;51.496;7.210;2023-08-17T01:18:47;5.17;;;4.03;;
2966;SDS011;1493;51.496;7.210;2023-08-17T01:21:16;5.27;;;3.70;;
2966;SDS011;1493;51.496;7.210;2023-08-17T01:23:45;4.70;;;3.40;;
2966;SDS011;1493;51.496;7.210;2023-08-17T01:26:12;4.97;;;3.47;;
2966;SDS011;1493;51.496;7.210;2023-08-17T01:28:40;4.03;;;3.43;;
2966;SDS011;1493;51.496;7.210;2023-08-17T01:31:09;5.90;;;3.90;;
2966;SDS011;1493;51.496;7.210;2023-08-17T01:33:40;5.20;;;3.30;;
2966;SDS011;1493;51.496;7.210;2023-08-17T01:36:13;5.63;;;3.90;;
2966;SDS011;1493;51.496;7.210;2023-08-17T01:38:48;5.27;;;3.93;;
2966;SDS011;1493;51.496;7.210;2023-08-17T01:41:17;7.00;;;4.70;;
2966;SDS011;1493;51.496;7.210;2023-08-17T01:43:46;5.53;;;3.47;;
2966;SDS011;1493;51.496;7.210;2023-08-17T01:46:14;4.33;;;3.13;;
2966;SDS011;1493;51.496;7.210;2023-08-17T01:48:42;4.27;;;3.60;;
2966;SDS011;1493;51.496;7.210;2023-08-17T01:51:09;6.67;;;3.67;;
2966;SDS011;1493;51.496;7.210;2023-08-17T01:53:37;4.90;;;3.93;;
2966;SDS011;1493;51.496;7.210;2023-08-17T01:56:05;5.53;;;4.57;;
2966;SDS011;1493;51.496;7.210;2023-08-17T01:58:32;5.03;;;4.60;;
2966;SDS011;1493;51.496;7.210;2023-08-17T02:00:58;6.93;;;3.90;;
2966;SDS011;1493;51.496;7.210;2023-08-17T02:03:25;8.57;;;4.00;;
2966;SDS011;1493;51.496;7.210;2023-08-17T02:05:55;4.40;;;4.00;;
2966;SDS011;1493;51.496;7.210;2023-08-17T02:08:22;3.93;;;3.60;;
2966;SDS011;1493;51.496;7.210;2023-08-17T02:10:49;5.53;;;3.97;;
2966;SDS011;1493;51.496;7.210;2023-08-17T02:13:17;5.27;;;3.97;;
2966;SDS011;1493;51.496;7.210;2023-08-17T02:15:44;4.10;;;3.70;;
2966;SDS011;1493;51.496;7.210;2023-08-17T02:18:12;4.23;;;3.73;;
2966;SDS011;1493;51.496;7.210;2023-08-17T02:20:39;9.67;;;4.10;;
2966;SDS011;1493;51.496;7.210;2023-08-17T02:23:06;4.90;;;3.63;;
2966;SDS011;1493;51.496;7.210;2023-08-17T02:25:32;4.57;;;4.17;;
2966;SDS011;1493;51.496;7.210;2023-08-17T02:28:00;7.23;;;4.20;;
2966;SDS011;1493;51.496;7.210;2023-08-17T02:30:28;4.17;;;3.77;;
2966;SDS011;1493;51.496;7.210;2023-08-17T02:32:55;8.37;;;4.60;;
2966;SDS011;1493;51.496;7.210;2023-08-17T02:35:22;5.80;;;3.83;;
2966;SDS011;1493;51.496;7.210;2023-08-17T02:37:49;4.00;;;3.60;;
2966;SDS011;1493;51.496;7.210;2023-08-17T02:40:16;9.33;;;4.47;;
2966;SDS011;1493;51.496;7.210;2023-08-17T02:42:43;4.20;;;3.80;;
2966;SDS011;1493;51.496;7.210;2023-08-17T02:45:10;4.43;;;3.70;;
2966;SDS011;1493;51.496;7.210;2023-08-17T02:47:38;4.60;;;3.97;;
2966;SDS011;1493;51.496;7.210;2023-08-17T02:50:05;4.13;;;3.73;;
2966;SDS011;1493;51.496;7.210;2023-08-17T02:52:33;6.10;;;3.90;;
2966;SDS011;1493;51.496;7.210;2023-08-17T02:54:59;7.23;;;4.40;;
2966;SDS011;1493;51.496;7.210;2023-08-17T02:57:26;5.17;;;4.03;;
2966;SDS011;1493;51.496;7.210;2023-08-17T02:59:53;5.47;;;4.00;;
2966;SDS011;1493;51.496;7.210;2023-08-17T03:02:20;5.00;;;4.10;;
2966;SDS011;1493;51.496;7.210;2023-08-17T03:04:48;4.17;;;3.87;;
2966;SDS011;1493;51.496;7.210;2023-08-17T03:07:15;5.67;;;4.80;;
2966;SDS011;1493;51.496;7.210;2023-08-17T03:09:42;4.83;;;4.33;;
2966;SDS011;1493;51.496;7.210;2023-08-17T03:12:08;6.73;;;4.67;;
2966;SDS011;1493;51.496;7.210;2023-08-17T03:14:35;6.80;;;4.60;;
2966;SDS011;1493;51.496;7.210;2023-08-17T03:17:02;5.53;;;5.03;;
2966;SDS011;1493;51.496;7.210;2023-08-17T03:19:29;6.50;;;4.87;;
2966;SDS011;1493;51.496;7.210;2023-08-17T03:21:57;8.97;;;4.70;;
2966;SDS011;1493;51.496;7.210;2023-08-17T03:24:23;6.03;;;5.13;;
2966;SDS011;1493;51.496;7.210;2023-08-17T03:26:50;6.03;;;5.33;;
2966;SDS011;1493;51.496;7.210;2023-08-17T03:29:17;6.10;;;5.00;;
2966;SDS011;1493;51.496;7.210;2023-08-17T03:31:44;4.80;;;4.30;;
2966;SDS011;1493;51.496;7.210;2023-08-17T03:34:11;5.53;;;5.07;;
2966;SDS011;1493;51.496;7.210;2023-08-17T03:36:37;7.30;;;5.33;;
2966;SDS011;1493;51.496;7.210;2023-08-17T03:39:06;5.13;;;4.63;;
2966;SDS011;1493;51.496;7.210;2023-08-17T03:41:32;6.83;;;4.90;;
2966;SDS011;1493;51.496;7.210;2023-08-17T03:44:01;6.53;;;5.27;;
2966;SDS011;1493;51.496;7.210;2023-08-17T03:46:28;9.50;;;5.50;;
2966;SDS011;1493;51.496;7.210;2023-08-17T03:48:55;6.67;;;5.30;;
2966;SDS011;1493;51.496;7.210;2023-08-17T03:51:22;5.03;;;4.63;;
2966;SDS011;1493;51.496;7.210;2023-08-17T03:53:49;6.13;;;4.27;;
2966;SDS011;1493;51.496;7.210;2023-08-17T03:56:17;5.63;;;5.10;;
2966;SDS011;1493;51.496;7.210;2023-08-17T03:58:44;5.93;;;4.63;;
2966;SDS011;1493;51.496;7.210;2023-08-17T04:01:10;5.27;;;4.50;;
2966;SDS011;1493;51.496;7.210;2023-08-17T04:03:38;6.97;;;4.87;;
2966;SDS011;1493;51.496;7.210;2023-08-17T04:06:05;8.87;;;5.40;;
2966;SDS011;1493;51.496;7.210;2023-08-17T04:08:32;5.83;;;4.77;;
2966;SDS011;1493;51.496;7.210;2023-08-17T04:10:59;4.90;;;4.40;;
2966;SDS011;1493;51.496;7.210;2023-08-17T04:13:27;5.40;;;4.63;;
2966;SDS011;1493;51.496;7.210;2023-08-17T04:15:54;7.63;;;5.00;;
2966;SDS011;1493;51.496;7.210;2023-08-17T04:18:21;6.70;;;5.73;;
2966;SDS011;1493;51.496;7.210;2023-08-17T04:20:47;6.30;;;4.97;;
2966;SDS011;1493;51.496;7.210;2023-08-17T04:23:14;7.87;;;5.70;;
2966;SDS011;1493;51.496;7.210;2023-08-17T04:25:41;5.90;;;5.30;;
2966;SDS011;1493;51.496;7.210;2023-08-17T04:28:09;6.90;;;4.93;;
2966;SDS011;1493;51.496;7.210;2023-08-17T04:30:38;7.33;;;5.37;;
2966;SDS011;1493;51.496;7.210;2023-08-17T04:33:05;5.50;;;5.00;;
2966;SDS011;1493;51.496;7.210;2023-08-17T04:35:32;6.20;;;5.60;;
2966;SDS011;1493;51.496;7.210;2023-08-17T04:37:59;6.03;;;5.53;;
2966;SDS011;1493;51.496;7.210;2023-08-17T04:40:26;8.00;;;6.00;;
2966;SDS011;1493;51.496;7.210;2023-08-17T04:42:53;6.87;;;6.20;;
2966;SDS011;1493;51.496;7.210;2023-08-17T04:45:20;7.23;;;6.20;;
2966;SDS011;1493;51.496;7.210;2023-08-17T04:47:49;6.40;;;5.80;;
2966;SDS011;1493;51.496;7.210;2023-08-17T04:50:16;8.17;;;6.10;;
2966;SDS011;1493;51.496;7.210;2023-08-17T04:52:43;9.70;;;6.63;;
2966;SDS011;1493;51.496;7.210;2023-08-17T04:55:10;7.90;;;6.27;;
2966;SDS011;1493;51.496;7.210;2023-08-17T04:57:37;8.80;;;6.83;;
2966;SDS011;1493;51.496;7.210;2023-08-17T05:00:04;9.40;;;6.53;;
2966;SDS011;1493;51.496;7.210;2023-08-17T05:02:34;8.27;;;7.37;;
2966;SDS011;1493;51.496;7.210;2023-08-17T05:05:03;7.50;;;5.73;;
2966;SDS011;1493;51.496;7.210;2023-08-17T05:07:31;7.50;;;5.87;;
2966;SDS011;1493;51.496;7.210;2023-08-17T05:09:58;10.77;;;6.20;;
2966;SDS011;1493;51.496;7.210;2023-08-17T05:12:25;7.00;;;5.90;;
2966;SDS011;1493;51.496;7.210;2023-08-17T05:14:52;9.37;;;6.87;;
2966;SDS011;1493;51.496;7.210;2023-08-17T05:17:19;9.27;;;6.80;;
2966;SDS011;1493;51.496;7.210;2023-08-17T05:19:46;8.07;;;6.53;;
2966;SDS011;1493;51.496;7.210;2023-08-17T05:22:14;7.33;;;5.80;;
2966;SDS011;1493;51.496;7.210;2023-08-17T05:24:41;7.13;;;6.43;;
2966;SDS011;1493;51.496;7.210;2023-08-17T05:27:07;7.43;;;6.73;;
2966;SDS011;1493;51.496;7.210;2023-08-17T05:29:34;7.67;;;6.80;;
2966;SDS011;1493;51.496;7.210;2023-08-17T05:32:01;7.57;;;6.87;;
2966;SDS011;1493;51.496;7.210;2023-08-17T05:34:28;6.67;;;5.90;;
2966;SDS011;1493;51.496;7.210;2023-08-17T05:36:55;12.20;;;6.37;;
2966;SDS011;1493;51.496;7.210;2023-08-17T05:39:23;8.30;;;6.00;;
2966;SDS011;1493;51.496;7.210;2023-08-17T05:41:50;7.80;;;6.90;;
2966;SDS011;1493;51.496;7.210;2023-08-17T05:44:17;8.33;;;6.20;;
2966;SDS011;1493;51.496;7.210;2023-08-17T05:46:44;6.93;;;6.23;;
2966;SDS011;1493;51.496;7.210;2023-08-17T05:49:11;8.77;;;6.50;;
2966;SDS011;1493;51.496;7.210;2023-08-17T05:51:37;8.97;;;7.43;;
2966;SDS011;1493;51.496;7.210;2023-08-17T05:54:04;7.30;;;6.20;;
2966;SDS011;1493;51.496;7.210;2023-08-17T05:56:33;8.60;;;5.00;;
2966;SDS011;1493;51.496;7.210;2023-08-17T05:59:00;7.47;;;6.67;;
2966;SDS011;1493;51.496;7.210;2023-08-17T06:01:27;10.00;;;6.77;;
2966;SDS011;1493;51.496;7.210;2023-08-17T06:03:54;9.60;;;7.43;;
2966;SDS011;1493;51.496;7.210;2023-08-17T06:06:21;8.50;;;6.50;;
2966;SDS011;1493;51.496;7.210;2023-08-17T06:08:47;9.43;;;5.80;;
2966;SDS011;1493;51.496;7.210;2023-08-17T06:11:14;6.67;;;5.60;;
2966;SDS011;1493;51.496;7.210;2023-08-17T06:13:43;10.90;;;7.60;;
2966;SDS011;1493;51.496;7.210;2023-08-17T06:16:09;7.90;;;6.73;;
2966;SDS011;1493;51.496;7.210;2023-08-17T06:18:36;9.13;;;6.40;;
2966;SDS011;1493;51.496;7.210;2023-08-17T06:21:03;10.17;;;6.90;;
2966;SDS011;1493;51.496;7.210;2023-08-17T06:23:30;10.70;;;7.60;;
2966;SDS011;1493;51.496;7.210;2023-08-17T06:25:57;10.87;;;8.83;;
2966;SDS011;1493;51.496;7.210;2023-08-17T06:28:24;10.03;;;7.80;;
2966;SDS011;1493;51.496;7.210;2023-08-17T06:30:53;8.77;;;7.97;;
2966;SDS011;1493;51.496;7.210;2023-08-17T06:33:20;9.27;;;8.30;;
2966;SDS011;1493;51.496;7.210;2023-08-17T06:35:47;14.27;;;8.37;;
2966;SDS011;1493;51.496;7.210;2023-08-17T06:38:14;9.60;;;7.53;;
2966;SDS011;1493;51.496;7.210;2023-08-17T06:40:41;10.57;;;7.20;;
2966;SDS011;1493;51.496;7.210;2023-08-17T06:43:08;8.67;;;7.33;;
2966;SDS011;1493;51.496;7.210;2023-08-17T06:45:35;13.40;;;9.47;;
2966;SDS011;1493;51.496;7.210;2023-08-17T06:48:03;14.37;;;10.40;;
2966;SDS011;1493;51.496;7.210;2023-08-17T06:50:30;14.23;;;9.30;;
2966;SDS011;1493;51.496;7.210;2023-08-17T06:52:57;14.80;;;10.77;;
2966;SDS011;1493;51.496;7.210;2023-08-17T06:55:24;15.00;;;10.40;;
2966;SDS011;1493;51.496;7.210;2023-08-17T06:57:51;12.43;;;10.83;;
2966;SDS011;1493;51.496;7.210;2023-08-17T07:00:17;11.27;;;9.20;;
2966;SDS011;1493;51.496;7.210;2023-08-17T07:02:45;13.00;;;9.77;;
2966;SDS011;1493;51.496;7.210;2023-08-17T07:05:14;14.07;;;10.17;;
2966;SDS011;1493;51.496;7.210;2023-08-17T07:07:41;13.70;;;11.43;;
2966;SDS011;1493;51.496;7.210;2023-08-17T07:10:08;15.73;;;10.50;;
2966;SDS011;1493;51.496;7.210;2023-08-17T07:12:35;17.37;;;11.53;;
2966;SDS011;1493;51.496;7.210;2023-08-17T07:15:03;13.00;;;10.20;;
2966;SDS011;1493;51.496;7.210;2023-08-17T07:17:30;11.57;;;10.37;;
2966;SDS011;1493;51.496;7.210;2023-08-17T07:19:59;15.67;;;11.63;;
2966;SDS011;1493;51.496;7.210;2023-08-17T07:22:27;11.80;;;10.50;;
2966;SDS011;1493;51.496;7.210;2023-08-17T07:24:54;15.40;;;11.63;;
2966;SDS011;1493;51.496;7.210;2023-08-17T07:27:20;12.53;;;11.23;;
2966;SDS011;1493;51.496;7.210;2023-08-17T07:29:47;14.70;;;12.10;;
2966;SDS011;1493;51.496;7.210;2023-08-17T07:32:14;11.80;;;10.30;;
2966;SDS011;1493;51.496;7.210;2023-08-17T07:34:41;14.07;;;11.73;;
2966;SDS011;1493;51.496;7.210;2023-08-17T07:37:09;14.97;;;10.80;;
2966;SDS011;1493;51.496;7.210;2023-08-17T07:39:37;11.13;;;9.70;;
2966;SDS011;1493;51.496;7.210;2023-08-17T07:42:04;11.50;;;10.30;;
2966;SDS011;1493;51.496;7.210;2023-08-17T07:44:31;12.83;;;11.43;;
2966;SDS011;1493;51.496;7.210;2023-08-17T07:46:59;14.63;;;11.77;;
2966;SDS011;1493;51.496;7.210;2023-08-17T07:49:27;16.80;;;13.70;;
2966;SDS011;1493;51.496;7.210;2023-08-17T07:51:54;14.33;;;12.57;;
2966;SDS011;1493;51.496;7.210;2023-08-17T07:54:21;15.93;;;12.70;;
2966;SDS011;1493;51.496;7.210;2023-08-17T07:56:49;14.83;;;13.23;;
2966;SDS011;1493;51.496;7.210;2023-08-17T07:59:16;12.53;;;10.80;;
2966;SDS011;1493;51.496;7.210;2023-08-17T08:01:43;12.30;;;11.17;;
2966;SDS011;1493;51.496;7.210;2023-08-17T08:04:10;11.60;;;10.47;;
2966;SDS011;1493;51.496;7.210;2023-08-17T08:06:36;13.53;;;12.13;;
2966;SDS011;1493;51.496;7.210;2023-08-17T08:09:03;14.07;;;11.50;;
2966;SDS011;1493;51.496;7.210;2023-08-17T08:11:31;15.40;;;11.50;;
2966;SDS011;1493;51.496;7.210;2023-08-17T08:13:59;12.63;;;10.70;;
2966;SDS011;1493;51.496;7.210;2023-08-17T08:16:26;13.50;;;12.10;;
2966;SDS011;1493;51.496;7.210;2023-08-17T08:18:55;13.83;;;12.43;;
2966;SDS011;1493;51.496;7.210;2023-08-17T08:21:22;14.47;;;13.10;;
2966;SDS011;1493;51.496;7.210;2023-08-17T08:23:49;20.10;;;13.40;;
2966;SDS011;1493;51.496;7.210;2023-08-17T08:26:15;13.50;;;12.17;;
2966;SDS011;1493;51.496;7.210;2023-08-17T08:28:42;14.53;;;13.13;;
2966;SDS011;1493;51.496;7.210;2023-08-17T08:31:10;15.97;;;12.67;;
2966;SDS011;1493;51.496;7.210;2023-08-17T08:33:37;14.20;;;12.90;;
2966;SDS011;1493;51.496;7.210;2023-08-17T08:36:04;14.80;;;13.30;;
2966;SDS011;1493;51.496;7.210;2023-08-17T08:38:32;13.43;;;12.13;;
2966;SDS011;1493;51.496;7.210;2023-08-17T08:40:59;18.57;;;14.27;;
2966;SDS011;1493;51.496;7.210;2023-08-17T08:43:26;13.90;;;12.47;;
2966;SDS011;1493;51.496;7.210;2023-08-17T08:45:54;15.10;;;13.53;;
2966;SDS011;1493;51.496;7.210;2023-08-17T08:48:22;14.57;;;13.13;;
2966;SDS011;1493;51.496;7.210;2023-08-17T08:50:53;14.53;;;13.07;;
2966;SDS011;1493;51.496;7.210;2023-08-17T08:53:24;12.80;;;11.50;;
2966;SDS011;1493;51.496;7.210;2023-08-17T08:55:58;13.20;;;11.83;;
2966;SDS011;1493;51.496;7.210;2023-08-17T08:58:26;15.27;;;12.60;;
2966;SDS011;1493;51.496;7.210;2023-08-17T09:00:53;14.47;;;13.07;;
2966;SDS011;1493;51.496;7.210;2023-08-17T09:03:22;16.47;;;13.33;;
2966;SDS011;1493;51.496;7.210;2023-08-17T09:05:50;15.10;;;13.60;;
2966;SDS011;1493;51.496;7.210;2023-08-17T09:08:20;15.30;;;13.70;;
2966;SDS011;1493;51.496;7.210;2023-08-17T09:10:48;15.00;;;13.50;;
2966;SDS011;1493;51.496;7.210;2023-08-17T09:13:15;16.20;;;14.70;;
2966;SDS011;1493;51.496;7.210;2023-08-17T09:15:42;18.33;;;15.23;;
2966;SDS011;1493;51.496;7.210;2023-08-17T09:18:09;18.60;;;16.10;;
2966;SDS011;1493;51.496;7.210;2023-08-17T09:20:38;14.73;;;13.23;;
2966;SDS011;1493;51.496;7.210;2023-08-17T09:23:10;17.73;;;16.13;;
2966;SDS011;1493;51.496;7.210;2023-08-17T09:25:39;17.03;;;15.43;;
2966;SDS011;1493;51.496;7.210;2023-08-17T09:28:07;18.03;;;15.90;;
2966;SDS011;1493;51.496;7.210;2023-08-17T09:30:48;20.43;;;18.37;;
2966;SDS011;1493;51.496;7.210;2023-08-17T09:33:16;21.53;;;19.53;;
2966;SDS011;1493;51.496;7.210;2023-08-17T09:35:45;27.07;;;23.67;;
2966;SDS011;1493;51.496;7.210;2023-08-17T09:38:12;29.50;;;24.13;;
2966;SDS011;1493;51.496;7.210;2023-08-17T09:40:39;28.40;;;22.17;;
2966;SDS011;1493;51.496;7.210;2023-08-17T09:43:06;19.30;;;16.10;;
2966;SDS011;1493;51.496;7.210;2023-08-17T09:45:32;15.90;;;13.57;;
2966;SDS011;1493;51.496;7.210;2023-08-17T09:47:59;15.90;;;14.10;;
2966;SDS011;1493;51.496;7.210;2023-08-17T09:50:27;14.90;;;12.47;;
2966;SDS011;1493;51.496;7.210;2023-08-17T09:52:55;16.23;;;14.53;;
2966;SDS011;1493;51.496;7.210;2023-08-17T09:55:22;17.40;;;12.90;;
2966;SDS011;1493;51.496;7.210;2023-08-17T09:57:49;14.90;;;12.53;;
2966;SDS011;1493;51.496;7.210;2023-08-17T10:00:17;15.37;;;13.87;;
2966;SDS011;1493;51.496;7.210;2023-08-17T10:02:45;15.47;;;13.87;;
2966;SDS011;1493;51.496;7.210;2023-08-17T10:05:17;16.17;;;14.37;;
2966;SDS011;1493;51.496;7.210;2023-08-17T10:07:46;17.03;;;15.23;;
2966;SDS011;1493;51.496;7.210;2023-08-17T10:10:21;17.40;;;15.20;;
2966;SDS011;1493;51.496;7.210;2023-08-17T10:12:53;17.13;;;15.00;;
2966;SDS011;1493;51.496;7.210;2023-08-17T10:15:29;19.60;;;17.27;;
2966;SDS011;1493;51.496;7.210;2023-08-17T10:17:58;19.27;;;17.27;;
2966;SDS011;1493;51.496;7.210;2023-08-17T10:20:32;20.40;;;17.80;;
2966;SDS011;1493;51.496;7.210;2023-08-17T10:23:05;22.37;;;19.97;;
2966;SDS011;1493;51.496;7.210;2023-08-17T10:25:42;20.03;;;17.50;;
2966;SDS011;1493;51.496;7.210;2023-08-17T10:28:10;20.93;;;18.50;;
2966;SDS011;1493;51.496;7.210;2023-08-17T10:30:38;21.67;;;17.97;;
2966;SDS011;1493;51.496;7.210;2023-08-17T10:33:05;25.10;;;22.40;;
2966;SDS011;1493;51.496;7.210;2023-08-17T10:35:33;27.80;;;24.83;;
2966;SDS011;1493;51.496;7.210;2023-08-17T10:38:02;29.97;;;26.83;;
2966;SDS011;1493;51.496;7.210;2023-08-17T10:40:34;30.80;;;25.37;;
2966;SDS011;1493;51.496;7.210;2023-08-17T10:43:03;30.53;;;26.60;;
2966;SDS011;1493;51.496;7.210;2023-08-17T10:45:30;30.37;;;27.23;;
2966;SDS011;1493;51.496;7.210;2023-08-17T10:47:59;30.83;;;27.53;;
2966;SDS011;1493;51.496;7.210;2023-08-17T10:50:44;32.00;;;28.60;;
2966;SDS011;1493;51.496;7.210;2023-08-17T10:53:25;27.90;;;25.03;;
2966;SDS011;1493;51.496;7.210;2023-08-17T10:55:54;30.70;;;27.17;;
2966;SDS011;1493;51.496;7.210;2023-08-17T10:58:25;29.07;;;25.40;;
2966;SDS011;1493;51.496;7.210;2023-08-17T11:00:54;33.17;;;29.07;;
2966;SDS011;1493;51.496;7.210;2023-08-17T11:03:21;29.50;;;26.33;;
2966;SDS011;1493;51.496;7.210;2023-08-17T11:05:50;30.77;;;27.33;;
2966;SDS011;1493;51.496;7.210;2023-08-17T11:08:22;29.10;;;26.00;;
2966;SDS011;1493;51.496;7.210;2023-08-17T11:10:57;33.60;;;27.70;;
2966;SDS011;1493;51.496;7.210;2023-08-17T11:13:28;28.40;;;25.03;;
2966;SDS011;1493;51.496;7.210;2023-08-17T11:15:57;32.87;;;28.50;;
2966;SDS011;1493;51.496;7.210;2023-08-17T11:18:24;31.30;;;27.70;;
2966;SDS011;1493;51.496;7.210;2023-08-17T11:20:51;32.50;;;28.67;;
2966;SDS011;1493;51.496;7.210;2023-08-17T11:23:19;29.80;;;26.30;;
2966;SDS011;1493;51.496;7.210;2023-08-17T11:25:46;31.30;;;27.90;;
2966;SDS011;1493;51.496;7.210;2023-08-17T11:28:13;31.43;;;28.03;;
2966;SDS011;1493;51.496;7.210;2023-08-17T11:30:42;29.30;;;26.33;;
2966;SDS011;1493;51.496;7.210;2023-08-17T11:33:09;27.37;;;24.50;;
2966;SDS011;1493;51.496;7.210;2023-08-17T11:35:36;28.13;;;25.20;;
2966;SDS011;1493;51.496;7.210;2023-08-17T11:38:04;28.67;;;25.70;;
2966;SDS011;1493;51.496;7.210;2023-08-17T11:40:33;27.43;;;23.93;;
2966;SDS011;1493;51.496;7.210;2023-08-17T11:43:00;28.33;;;25.43;;
2966;SDS011;1493;51.496;7.210;2023-08-17T11:45:27;27.10;;;24.40;;
2966;SDS011;1493;51.496;7.210;2023-08-17T11:47:56;30.10;;;27.10;;
2966;SDS011;1493;51.496;7.210;2023-08-17T11:50:24;30.47;;;27.30;;
2966;SDS011;1493;51.496;7.210;2023-08-17T11:52:51;29.33;;;26.53;;
2966;SDS011;1493;51.496;7.210;2023-08-17T11:55:18;29.47;;;26.37;;
2966;SDS011;1493;51.496;7.210;2023-08-17T11:57:45;29.93;;;26.93;;
2966;SDS011;1493;51.496;7.210;2023-08-17T12:00:16;32.30;;;28.90;;
2966;SDS011;1493;51.496;7.210;2023-08-17T12:02:46;29.43;;;26.27;;
2966;SDS011;1493;51.496;7.210;2023-08-17T12:05:15;21.33;;;18.97;;
2966;SDS011;1493;51.496;7.210;2023-08-17T12:07:45;18.23;;;16.30;;
2966;SDS011;1493;51.496;7.210;2023-08-17T12:10:12;15.30;;;13.37;;
2966;SDS011;1493;51.496;7.210;2023-08-17T12:12:39;14.90;;;13.30;;
2966;SDS011;1493;51.496;7.210;2023-08-17T12:15:06;14.00;;;12.50;;
2966;SDS011;1493;51.496;7.210;2023-08-17T12:17:35;14.10;;;12.60;;
2966;SDS011;1493;51.496;7.210;2023-08-17T12:20:07;18.20;;;13.60;;
2966;SDS011;1493;51.496;7.210;2023-08-17T12:22:35;19.97;;;13.90;;
2966;SDS011;1493;51.496;7.210;2023-08-17T12:25:06;14.27;;;12.77;;
2966;SDS011;1493;51.496;7.210;2023-08-17T12:27:35;13.07;;;11.77;;
2966;SDS011;1493;51.496;7.210;2023-08-17T12:30:01;15.40;;;13.13;;
2966;SDS011;1493;51.496;7.210;2023-08-17T12:32:29;15.03;;;13.63;;
2966;SDS011;1493;51.496;7.210;2023-08-17T12:34:55;13.70;;;12.30;;
2966;SDS011;1493;51.496;7.210;2023-08-17T12:37:22;17.20;;;13.63;;
2966;SDS011;1493;51.496;7.210;2023-08-17T12:39:50;16.70;;;13.03;;
2966;SDS011;1493;51.496;7.210;2023-08-17T12:42:17;15.33;;;13.73;;
2966;SDS011;1493;51.496;7.210;2023-08-17T12:44:44;17.50;;;15.30;;
2966;SDS011;1493;51.496;7.210;2023-08-17T12:47:11;16.00;;;14.40;;
2966;SDS011;1493;51.496;7.210;2023-08-17T12:49:37;16.40;;;14.70;;
2966;SDS011;1493;51.496;7.210;2023-08-17T12:52:04;20.37;;;18.17;;
2966;SDS011;1493;51.496;7.210;2023-08-17T12:54:31;19.50;;;17.10;;
2966;SDS011;1493;51.496;7.210;2023-08-17T12:56:59;19.37;;;16.97;;
2966;SDS011;1493;51.496;7.210;2023-08-17T12:59:27;22.37;;;20.20;;
2966;SDS011;1493;51.496;7.210;2023-08-17T13:01:54;20.63;;;18.67;;
2966;SDS011;1493;51.496;7.210;2023-08-17T13:04:21;23.47;;;21.00;;
2966;SDS011;1493;51.496;7.210;2023-08-17T13:06:48;24.10;;;21.50;;
2966;SDS011;1493;51.496;7.210;2023-08-17T13:09:16;21.40;;;19.20;;
2966;SDS011;1493;51.496;7.210;2023-08-17T13:11:43;25.17;;;21.47;;
2966;SDS011;1493;51.496;7.210;2023-08-17T13:14:12;22.27;;;19.90;;
2966;SDS011;1493;51.496;7.210;2023-08-17T13:16:40;20.57;;;18.33;;
2966;SDS011;1493;51.496;7.210;2023-08-17T13:19:07;18.63;;;16.77;;
2966;SDS011;1493;51.496;7.210;2023-08-17T13:21:34;20.30;;;18.20;;
2966;SDS011;1493;51.496;7.210;2023-08-17T13:24:01;26.10;;;19.40;;
2966;SDS011;1493;51.496;7.210;2023-08-17T13:26:28;21.70;;;19.40;;
2966;SDS011;1493;51.496;7.210;2023-08-17T13:28:55;20.40;;;18.40;;
2966;SDS011;1493;51.496;7.210;2023-08-17T13:31:24;23.03;;;20.60;;
2966;SDS011;1493;51.496;7.210;2023-08-17T13:33:50;21.63;;;19.30;;
2966;SDS011;1493;51.496;7.210;2023-08-17T13:36:18;19.13;;;17.33;;
2966;SDS011;1493;51.496;7.210;2023-08-17T13:38:44;16.23;;;14.53;;
2966;SDS011;1493;51.496;7.210;2023-08-17T13:41:11;16.33;;;14.63;;
2966;SDS011;1493;51.496;7.210;2023-08-17T13:43:38;15.97;;;14.27;;
2966;SDS011;1493;51.496;7.210;2023-08-17T13:46:05;17.30;;;14.17;;
2966;SDS011;1493;51.496;7.210;2023-08-17T13:48:33;15.40;;;13.80;;
2966;SDS011;1493;51.496;7.210;2023-08-17T13:51:00;16.40;;;14.07;;
2966;SDS011;1493;51.496;7.210;2023-08-17T13:53:27;18.00;;;14.77;;
2966;SDS011;1493;51.496;7.210;2023-08-17T13:55:54;18.50;;;16.60;;
2966;SDS011;1493;51.496;7.210;2023-08-17T13:58:20;21.30;;;19.17;;
2966;SDS011;1493;51.496;7.210;2023-08-17T14:00:47;22.53;;;20.13;;
2966;SDS011;1493;51.496;7.210;2023-08-17T14:03:14;21.40;;;19.13;;
2966;SDS011;1493;51.496;7.210;2023-08-17T14:05:42;19.03;;;17.20;;
2966;SDS011;1493;51.496;7.210;2023-08-17T14:08:09;19.83;;;17.40;;
2966;SDS011;1493;51.496;7.210;2023-08-17T14:10:37;17.47;;;15.77;;
2966;SDS011;1493;51.496;7.210;2023-08-17T14:13:03;17.37;;;15.70;;
2966;SDS011;1493;51.496;7.210;2023-08-17T14:15:30;17.47;;;15.67;;
2966;SDS011;1493;51.496;7.210;2023-08-17T14:17:57;17.67;;;15.87;;
2966;SDS011;1493;51.496;7.210;2023-08-17T14:20:24;20.33;;;18.23;;
2966;SDS011;1493;51.496;7.210;2023-08-17T14:22:53;19.20;;;16.50;;
2966;SDS011;1493;51.496;7.210;2023-08-17T14:25:20;19.77;;;17.87;;
2966;SDS011;1493;51.496;7.210;2023-08-17T14:27:47;20.63;;;18.50;;
2966;SDS011;1493;51.496;7.210;2023-08-17T14:30:13;19.73;;;16.97;;
2966;SDS011;1493;51.496;7.210;2023-08-17T14:32:40;20.00;;;17.47;;
2966;SDS011;1493;51.496;7.210;2023-08-17T14:35:07;18.70;;;16.70;;
2966;SDS011;1493;51.496;7.210;2023-08-17T14:37:34;17.93;;;16.07;;
2966;SDS011;1493;51.496;7.210;2023-08-17T14:40:02;20.00;;;17.80;;
2966;SDS011;1493;51.496;7.210;2023-08-17T14:42:29;21.67;;;17.50;;
2966;SDS011;1493;51.496;7.210;2023-08-17T14:44:56;18.47;;;15.93;;
2966;SDS011;1493;51.496;7.210;2023-08-17T14:47:23;18.57;;;16.37;;
2966;SDS011;1493;51.496;7.210;2023-08-17T14:49:50;22.50;;;17.10;;
2966;SDS011;1493;51.496;7.210;2023-08-17T14:52:18;18.90;;;17.07;;
2966;SDS011;1493;51.496;7.210;2023-08-17T14:54:45;19.40;;;16.57;;
2966;SDS011;1493;51.496;7.210;2023-08-17T14:57:13;18.70;;;16.80;;
2966;SDS011;1493;51.496;7.210;2023-08-17T14:59:40;18.07;;;16.17;;
2966;SDS011;1493;51.496;7.210;2023-08-17T15:02:07;20.63;;;15.60;;
2966;SDS011;1493;51.496;7.210;2023-08-17T15:04:35;19.10;;;17.10;;